createdAt,value
2022-09-28T00:00:00.593Z,2.50
2022-09-28T00:01:00.689Z,2.80
2022-09-28T00:02:00.688Z,11.30
2022-09-28T00:03:00.638Z,2.40
2022-09-28T00:04:00.526Z,2.70
2022-09-28T00:05:00.515Z,5.00
2022-09-28T00:06:00.506Z,4.00
2022-09-28T00:07:00.496Z,6.60
2022-09-28T00:08:00.476Z,11.90
2022-09-28T00:09:00.472Z,14.40
2022-09-28T00:10:00.469Z,2.60
2022-09-28T00:11:00.438Z,11.20
2022-09-28T00:12:01.378Z,2.90
2022-09-28T00:13:00.409Z,7.20
2022-09-28T00:14:00.409Z,3.20
2022-09-28T00:15:00.378Z,2.40
2022-09-28T00:16:00.431Z,2.20
2022-09-28T00:17:01.311Z,2.50
2022-09-28T00:18:02.303Z,2.50
2022-09-28T00:19:00.455Z,2.60
2022-09-28T00:20:00.330Z,2.80
2022-09-28T00:21:00.321Z,7.50
2022-09-28T00:22:01.248Z,2.30
2022-09-28T00:23:00.284Z,2.40
2022-09-28T00:24:00.267Z,2.50
2022-09-28T00:25:00.249Z,2.90
2022-09-28T00:26:00.247Z,6.30
2022-09-28T00:27:00.220Z,2.40
2022-09-28T00:28:00.213Z,6.40
2022-09-28T00:29:00.192Z,2.60
2022-09-28T00:30:00.212Z,17.90
2022-09-28T00:31:00.194Z,2.60
2022-09-28T00:32:00.361Z,3.60
2022-09-28T00:33:00.141Z,10.10
2022-09-28T00:34:00.132Z,2.50
2022-09-28T00:35:00.115Z,2.80
2022-09-28T00:36:00.136Z,3.70
2022-09-28T00:37:00.089Z,7.70
2022-09-28T00:38:00.106Z,2.90
2022-09-28T00:39:00.063Z,2.60
2022-09-28T00:40:00.053Z,4.70
2022-09-28T00:41:00.083Z,3.30
2022-09-28T00:42:00.018Z,2.70
2022-09-28T00:43:00.015Z,4.20
2022-09-28T00:43:59.994Z,4.20
2022-09-28T00:44:59.984Z,3.50
2022-09-28T00:46:00.014Z,6.20
2022-09-28T00:46:59.956Z,4.50
2022-09-28T00:47:59.946Z,2.60
2022-09-28T00:48:59.945Z,2.90
2022-09-28T00:50:00.865Z,2.50
2022-09-28T00:50:59.924Z,2.80
2022-09-28T00:51:59.885Z,3.40
2022-09-28T00:52:59.896Z,8.40
2022-09-28T00:53:59.858Z,2.20
2022-09-28T00:54:59.857Z,2.80
2022-09-28T00:55:59.838Z,4.60
2022-09-28T00:56:59.817Z,2.70
2022-09-28T00:57:59.807Z,9.90
2022-09-28T00:58:59.797Z,7.50
2022-09-28T00:59:59.779Z,2.60
2022-09-28T01:00:59.829Z,2.30
2022-09-28T01:01:59.812Z,2.50
2022-09-28T01:02:59.737Z,6.50
2022-09-28T01:03:59.728Z,2.40
2022-09-28T01:04:59.718Z,3.00
2022-09-28T01:05:59.709Z,2.10
2022-09-28T01:06:59.688Z,2.70
2022-09-28T01:07:59.669Z,10.20
2022-09-28T01:08:59.659Z,4.30
2022-09-28T01:09:59.647Z,3.40
2022-09-28T01:10:59.640Z,4.90
2022-09-28T01:11:59.631Z,2.60
2022-09-28T01:12:59.613Z,2.60
2022-09-28T01:13:59.602Z,3.00
2022-09-28T01:14:59.584Z,6.70
2022-09-28T01:15:59.683Z,4.60
2022-09-28T01:16:59.554Z,3.00
2022-09-28T01:18:00.491Z,2.40
2022-09-28T01:18:59.530Z,2.80
2022-09-28T01:19:59.514Z,3.70
2022-09-28T01:20:59.511Z,2.30
2022-09-28T01:22:00.439Z,5.00
2022-09-28T01:22:59.472Z,3.90
2022-09-28T01:23:59.460Z,2.70
2022-09-28T01:24:59.459Z,3.30
2022-09-28T01:25:59.431Z,4.90
2022-09-28T01:26:59.422Z,3.50
2022-09-28T01:27:59.413Z,3.40
2022-09-28T01:28:59.393Z,16.20
2022-09-28T01:29:59.395Z,2.50
2022-09-28T01:30:59.374Z,2.90
2022-09-28T01:31:59.455Z,5.60
2022-09-28T01:32:59.343Z,2.40
2022-09-28T01:33:59.329Z,2.50
2022-09-28T01:34:59.368Z,3.00
2022-09-28T01:35:59.313Z,2.40
2022-09-28T01:36:59.299Z,10.20
2022-09-28T01:37:59.275Z,2.20
2022-09-28T01:38:59.277Z,3.20
2022-09-28T01:39:59.259Z,2.90
2022-09-28T01:40:59.287Z,2.60
2022-09-28T01:41:59.225Z,2.40
2022-09-28T01:42:59.212Z,8.70
2022-09-28T01:43:59.195Z,2.30
2022-09-28T01:44:59.196Z,5.10
2022-09-28T01:45:59.219Z,5.40
2022-09-28T01:46:59.157Z,2.70
2022-09-28T01:47:59.137Z,5.70
2022-09-28T01:48:59.137Z,4.90
2022-09-28T01:49:59.117Z,3.90
2022-09-28T01:50:59.111Z,9.60
2022-09-28T01:52:01.063Z,6.60
2022-09-28T01:52:59.089Z,9.00
2022-09-28T01:53:59.070Z,4.20
2022-09-28T01:54:59.048Z,2.60
2022-09-28T01:55:59.038Z,3.80
2022-09-28T01:56:59.031Z,3.00
2022-09-28T01:57:59.008Z,4.60
2022-09-28T01:58:59.008Z,7.40
2022-09-28T01:59:58.979Z,2.70
2022-09-28T02:00:59.000Z,5.20
2022-09-28T02:01:59.953Z,3.40
2022-09-28T02:02:58.949Z,2.50
2022-09-28T02:03:58.944Z,11.30
2022-09-28T02:04:58.921Z,9.80
2022-09-28T02:05:58.900Z,3.50
2022-09-28T02:06:58.901Z,2.20
2022-09-28T02:07:58.881Z,7.10
2022-09-28T02:08:58.881Z,2.60
2022-09-28T02:09:58.851Z,3.10
2022-09-28T02:10:58.852Z,2.70
2022-09-28T02:11:58.821Z,7.30
2022-09-28T02:12:58.812Z,8.60
2022-09-28T02:13:58.801Z,2.40
2022-09-28T02:14:58.793Z,2.40
2022-09-28T02:15:58.806Z,3.60
2022-09-28T02:16:58.764Z,2.70
2022-09-28T02:17:58.815Z,3.70
2022-09-28T02:18:58.752Z,2.60
2022-09-28T02:19:58.723Z,2.40
2022-09-28T02:20:58.705Z,2.50
2022-09-28T02:21:58.693Z,2.60
2022-09-28T02:22:58.681Z,3.00
2022-09-28T02:23:58.677Z,7.10
2022-09-28T02:24:58.654Z,3.00
2022-09-28T02:25:58.635Z,3.20
2022-09-28T02:26:58.624Z,3.40
2022-09-28T02:27:58.614Z,3.10
2022-09-28T02:28:58.615Z,3.90
2022-09-28T02:29:59.525Z,5.90
2022-09-28T02:30:58.577Z,2.70
2022-09-28T02:31:58.556Z,5.30
2022-09-28T02:32:59.506Z,4.90
2022-09-28T02:33:58.546Z,2.50
2022-09-28T02:34:58.517Z,2.40
2022-09-28T02:35:58.506Z,3.90
2022-09-28T02:36:58.499Z,2.80
2022-09-28T02:37:58.477Z,2.20
2022-09-28T02:38:58.477Z,2.10
2022-09-28T02:39:58.447Z,2.20
2022-09-28T02:40:58.471Z,3.90
2022-09-28T02:41:58.417Z,4.20
2022-09-28T02:42:58.419Z,2.60
2022-09-28T02:43:58.398Z,2.50
2022-09-28T02:44:58.386Z,6.20
2022-09-28T02:45:58.424Z,4.70
2022-09-28T02:46:58.358Z,3.10
2022-09-28T02:47:58.341Z,4.90
2022-09-28T02:49:17.496Z,3.40
2022-09-28T02:49:59.320Z,3.00
2022-09-28T02:50:58.300Z,2.80
2022-09-28T02:51:58.280Z,3.30
2022-09-28T02:52:58.282Z,2.10
2022-09-28T02:53:58.260Z,2.30
2022-09-28T02:54:58.264Z,3.00
2022-09-28T02:55:58.230Z,3.20
2022-09-28T02:56:58.221Z,9.30
2022-09-28T02:57:58.201Z,6.10
2022-09-28T02:58:58.197Z,4.00
2022-09-28T02:59:58.192Z,2.80
2022-09-28T03:00:58.226Z,2.50
2022-09-28T03:01:58.214Z,4.20
2022-09-28T03:02:58.141Z,3.80
2022-09-28T03:03:58.122Z,2.90
2022-09-28T03:04:58.123Z,2.80
2022-09-28T03:05:58.093Z,2.90
2022-09-28T03:06:58.083Z,2.50
2022-09-28T03:07:58.074Z,4.80
2022-09-28T03:08:58.053Z,3.30
2022-09-28T03:09:58.053Z,2.80
2022-09-28T03:10:58.037Z,3.20
2022-09-28T03:11:58.014Z,3.10
2022-09-28T03:12:58.004Z,4.00
2022-09-28T03:13:57.984Z,2.70
2022-09-28T03:14:58.944Z,2.90
2022-09-28T03:15:57.998Z,3.80
2022-09-28T03:16:57.955Z,2.80
2022-09-28T03:17:57.937Z,2.90
2022-09-28T03:18:57.925Z,3.10
2022-09-28T03:19:57.916Z,2.80
2022-09-28T03:20:57.903Z,3.60
2022-09-28T03:21:57.886Z,3.20
2022-09-28T03:23:20.073Z,6.40
2022-09-28T03:23:58.857Z,3.50
2022-09-28T03:24:57.915Z,3.40
2022-09-28T03:25:57.837Z,3.30
2022-09-28T03:26:57.820Z,3.50
2022-09-28T03:27:57.814Z,3.20
2022-09-28T03:28:57.800Z,10.10
2022-09-28T03:29:57.788Z,3.30
2022-09-28T03:30:57.771Z,5.90
2022-09-28T03:31:57.773Z,3.80
2022-09-28T03:32:57.738Z,3.80
2022-09-28T03:33:57.738Z,3.70
2022-09-28T03:34:57.739Z,3.70
2022-09-28T03:35:57.699Z,4.20
2022-09-28T03:36:57.691Z,3.70
2022-09-28T03:37:57.672Z,3.90
2022-09-28T03:38:57.689Z,3.50
2022-09-28T03:39:57.640Z,3.20
2022-09-28T03:40:57.703Z,3.40
2022-09-28T03:41:57.621Z,3.80
2022-09-28T03:42:57.610Z,3.50
2022-09-28T03:43:57.600Z,4.10
2022-09-28T03:44:57.581Z,5.80
2022-09-28T03:45:57.662Z,3.40
2022-09-28T03:46:57.562Z,3.50
2022-09-28T03:47:58.991Z,3.70
2022-09-28T03:48:57.531Z,3.60
2022-09-28T03:49:57.511Z,5.30
2022-09-28T03:50:57.502Z,4.20
2022-09-28T03:51:57.482Z,3.70
2022-09-28T03:52:57.479Z,6.10
2022-09-28T03:53:57.463Z,3.50
2022-09-28T03:54:57.473Z,5.00
2022-09-28T03:55:57.433Z,3.60
2022-09-28T03:56:57.413Z,5.80
2022-09-28T03:57:57.403Z,4.50
2022-09-28T03:58:57.399Z,3.60
2022-09-28T03:59:57.374Z,6.40
2022-09-28T04:00:57.401Z,4.50
2022-09-28T04:01:57.406Z,4.30
2022-09-28T04:02:57.344Z,4.20
2022-09-28T04:03:57.333Z,5.40
2022-09-28T04:04:57.315Z,9.90
2022-09-28T04:05:57.295Z,4.20
2022-09-28T04:06:57.285Z,4.60
2022-09-28T04:07:57.268Z,4.60
2022-09-28T04:08:57.275Z,4.70
2022-09-28T04:09:57.242Z,4.90
2022-09-28T04:10:57.236Z,12.10
2022-09-28T04:12:03.895Z,4.90
2022-09-28T04:12:58.208Z,4.90
2022-09-28T04:13:57.196Z,5.10
2022-09-28T04:14:57.184Z,4.50
2022-09-28T04:15:57.194Z,4.80
2022-09-28T04:16:57.158Z,6.20
2022-09-28T04:17:57.135Z,4.60
2022-09-28T04:18:57.135Z,4.50
2022-09-28T04:19:57.108Z,5.30
2022-09-28T04:20:57.099Z,10.50
2022-09-28T04:21:57.079Z,4.50
2022-09-28T04:22:57.069Z,4.80
2022-09-28T04:23:57.058Z,5.10
2022-09-28T04:24:57.061Z,5.00
2022-09-28T04:25:57.030Z,4.90
2022-09-28T04:26:57.020Z,5.80
2022-09-28T04:27:56.999Z,5.10
2022-09-28T04:28:57.002Z,5.00
2022-09-28T04:29:56.980Z,5.30
2022-09-28T04:30:56.979Z,5.20
2022-09-28T04:31:57.155Z,5.00
2022-09-28T04:32:56.941Z,4.50
2022-09-28T04:33:56.945Z,5.10
2022-09-28T04:34:56.915Z,4.80
2022-09-28T04:35:56.901Z,4.90
2022-09-28T04:36:56.888Z,5.50
2022-09-28T04:37:56.871Z,8.20
2022-09-28T04:38:56.871Z,5.10
2022-09-28T04:39:56.842Z,5.80
2022-09-28T04:40:56.891Z,10.60
2022-09-28T04:41:56.822Z,5.10
2022-09-28T04:42:56.814Z,5.10
2022-09-28T04:43:56.803Z,5.80
2022-09-28T04:44:56.792Z,5.10
2022-09-28T04:45:56.837Z,5.20
2022-09-28T04:46:56.754Z,4.90
2022-09-28T04:47:56.734Z,5.70
2022-09-28T04:48:56.743Z,4.90
2022-09-28T04:49:56.713Z,5.10
2022-09-28T04:50:56.703Z,5.20
2022-09-28T04:51:56.685Z,5.50
2022-09-28T04:52:56.676Z,5.20
2022-09-28T04:53:56.673Z,5.60
2022-09-28T04:54:56.645Z,5.40
2022-09-28T04:55:56.635Z,5.00
2022-09-28T04:56:56.626Z,4.90
2022-09-28T04:57:56.616Z,6.70
2022-09-28T04:58:56.597Z,5.90
2022-09-28T04:59:57.536Z,5.40
2022-09-28T05:00:57.530Z,5.70
2022-09-28T05:01:56.587Z,5.40
2022-09-28T05:02:56.537Z,5.20
2022-09-28T05:03:56.538Z,5.20
2022-09-28T05:04:56.518Z,6.50
2022-09-28T05:05:56.512Z,5.20
2022-09-28T05:06:57.438Z,4.90
2022-09-28T05:07:56.479Z,5.00
2022-09-28T05:08:56.469Z,5.10
2022-09-28T05:09:56.448Z,5.60
2022-09-28T05:10:56.442Z,4.90
2022-09-28T05:11:56.427Z,4.70
2022-09-28T05:12:56.409Z,5.40
2022-09-28T05:13:56.407Z,5.00
2022-09-28T05:14:56.379Z,5.70
2022-09-28T05:15:59.655Z,5.00
2022-09-28T05:16:58.374Z,5.20
2022-09-28T05:17:56.341Z,5.40
2022-09-28T05:18:56.340Z,5.20
2022-09-28T05:19:56.328Z,5.10
2022-09-28T05:20:56.303Z,4.90
2022-09-28T05:21:56.291Z,6.80
2022-09-28T05:22:56.285Z,4.90
2022-09-28T05:23:56.272Z,5.10
2022-09-28T05:24:56.251Z,5.60
2022-09-28T05:25:56.242Z,5.90
2022-09-28T05:26:56.234Z,4.90
2022-09-28T05:27:56.212Z,6.60
2022-09-28T05:28:56.202Z,5.70
2022-09-28T05:29:56.190Z,4.90
2022-09-28T05:30:56.172Z,5.10
2022-09-28T05:31:56.216Z,5.30
2022-09-28T05:32:56.155Z,5.30
2022-09-28T05:33:56.133Z,5.20
2022-09-28T05:34:56.115Z,5.00
2022-09-28T05:36:00.795Z,8.20
2022-09-28T05:36:57.099Z,4.40
2022-09-28T05:37:56.088Z,5.00
2022-09-28T05:38:57.024Z,4.70
2022-09-28T05:39:56.055Z,4.50
2022-09-28T05:40:56.112Z,4.80
2022-09-28T05:41:56.025Z,7.50
2022-09-28T05:42:56.017Z,4.60
2022-09-28T05:43:56.005Z,4.70
2022-09-28T05:44:55.995Z,4.80
2022-09-28T05:45:56.072Z,5.00
2022-09-28T05:46:55.958Z,5.00
2022-09-28T05:47:55.968Z,4.80
2022-09-28T05:48:55.928Z,5.20
2022-09-28T05:49:55.925Z,5.10
2022-09-28T05:50:56.854Z,5.10
2022-09-28T05:51:55.897Z,4.60
2022-09-28T05:52:55.888Z,4.80
2022-09-28T05:53:55.868Z,6.20
2022-09-28T05:54:55.848Z,12.40
2022-09-28T05:55:55.846Z,5.10
2022-09-28T05:56:55.828Z,4.90
2022-09-28T05:57:55.826Z,5.20
2022-09-28T05:58:55.798Z,6.00
2022-09-28T05:59:55.800Z,5.30
2022-09-28T06:00:55.820Z,4.90
2022-09-28T06:01:55.767Z,4.90
2022-09-28T06:02:55.760Z,5.20
2022-09-28T06:03:55.739Z,5.20
2022-09-28T06:04:55.722Z,5.30
2022-09-28T06:05:55.719Z,11.10
2022-09-28T06:06:55.692Z,6.40
2022-09-28T06:07:55.691Z,4.70
2022-09-28T06:08:55.671Z,4.90
2022-09-28T06:09:55.660Z,5.10
2022-09-28T06:10:56.592Z,6.50
2022-09-28T06:11:55.632Z,4.60
2022-09-28T06:12:55.623Z,5.10
2022-09-28T06:13:55.611Z,7.10
2022-09-28T06:14:55.593Z,5.70
2022-09-28T06:15:55.581Z,6.50
2022-09-28T06:16:55.593Z,5.30
2022-09-28T06:17:55.562Z,6.10
2022-09-28T06:18:56.493Z,5.80
2022-09-28T06:19:55.524Z,5.60
2022-09-28T06:20:55.513Z,8.40
2022-09-28T06:21:56.798Z,5.90
2022-09-28T06:22:55.497Z,6.00
2022-09-28T06:23:55.475Z,5.30
2022-09-28T06:24:55.454Z,8.70
2022-09-28T06:25:55.445Z,6.50
2022-09-28T06:26:55.440Z,8.00
2022-09-28T06:27:55.434Z,5.60
2022-09-28T06:28:55.406Z,5.50
2022-09-28T06:29:55.395Z,6.00
2022-09-28T06:30:55.429Z,8.50
2022-09-28T06:31:55.374Z,4.60
2022-09-28T06:32:55.357Z,4.90
2022-09-28T06:33:56.296Z,5.30
2022-09-28T06:34:56.480Z,16.60
2022-09-28T06:35:56.277Z,4.90
2022-09-28T06:36:55.307Z,7.30
2022-09-28T06:37:55.305Z,8.50
2022-09-28T06:38:55.275Z,11.00
2022-09-28T06:39:55.278Z,4.50
2022-09-28T06:40:55.422Z,4.30
2022-09-28T06:41:55.239Z,4.20
2022-09-28T06:42:55.263Z,4.00
2022-09-28T06:43:55.209Z,4.20
2022-09-28T06:44:55.204Z,4.60
2022-09-28T06:45:55.332Z,3.50
2022-09-28T06:46:55.171Z,3.90
2022-09-28T06:47:55.168Z,3.70
2022-09-28T06:48:55.141Z,3.20
2022-09-28T06:49:55.131Z,3.70
2022-09-28T06:50:55.123Z,3.60
2022-09-28T06:51:55.113Z,3.50
2022-09-28T06:52:55.102Z,4.00
2022-09-28T06:53:55.088Z,4.50
2022-09-28T06:54:55.067Z,7.40
2022-09-28T06:55:55.054Z,5.30
2022-09-28T06:56:55.043Z,3.60
2022-09-28T06:57:55.034Z,3.70
2022-09-28T06:58:55.013Z,7.00
2022-09-28T06:59:55.003Z,4.80
2022-09-28T07:00:55.027Z,4.20
2022-09-28T07:01:55.022Z,4.30
2022-09-28T07:02:54.964Z,3.60
2022-09-28T07:03:55.782Z,4.90
2022-09-28T07:04:54.935Z,3.70
2022-09-28T07:05:54.925Z,4.60
2022-09-28T07:06:54.905Z,3.60
2022-09-28T07:07:54.906Z,5.10
2022-09-28T07:09:04.226Z,3.50
2022-09-28T07:09:55.876Z,5.60
2022-09-28T07:10:54.856Z,16.00
2022-09-28T07:11:54.846Z,9.10
2022-09-28T07:12:54.837Z,10.40
2022-09-28T07:13:54.816Z,6.20
2022-09-28T07:14:55.083Z,6.00
2022-09-28T07:15:54.805Z,11.40
2022-09-28T07:17:11.942Z,14.70
2022-09-28T07:18:02.047Z,16.70
2022-09-28T07:18:55.747Z,17.80
2022-09-28T07:19:54.751Z,17.80
2022-09-28T07:20:54.819Z,139.20
2022-09-28T07:22:03.847Z,134.10
2022-09-28T07:22:56.037Z,86.90
2022-09-28T07:23:54.712Z,34.90
2022-09-28T07:24:54.668Z,21.10
2022-09-28T07:25:54.846Z,14.50
2022-09-28T07:26:54.649Z,11.80
2022-09-28T07:27:54.639Z,9.40
2022-09-28T07:28:54.611Z,15.30
2022-09-28T07:29:54.600Z,12.30
2022-09-28T07:30:54.624Z,7.90
2022-09-28T07:31:54.593Z,5.00
2022-09-28T07:32:54.570Z,5.50
2022-09-28T07:33:55.511Z,5.20
2022-09-28T07:34:58.745Z,4.80
2022-09-28T07:35:54.531Z,6.30
2022-09-28T07:36:54.520Z,6.00
2022-09-28T07:37:54.503Z,5.80
2022-09-28T07:38:55.441Z,10.70
2022-09-28T07:39:54.473Z,5.70
2022-09-28T07:40:54.515Z,4.50
2022-09-28T07:41:56.734Z,3.60
2022-09-28T07:42:55.442Z,4.20
2022-09-28T07:43:54.425Z,4.00
2022-09-28T07:44:55.356Z,3.30
2022-09-28T07:45:54.510Z,3.70
2022-09-28T07:46:54.396Z,3.60
2022-09-28T07:47:54.374Z,4.90
2022-09-28T07:48:54.355Z,7.60
2022-09-28T07:49:54.346Z,6.50
2022-09-28T07:50:54.329Z,5.40
2022-09-28T07:51:54.335Z,4.20
2022-09-28T07:52:54.309Z,8.20
2022-09-28T07:53:54.293Z,4.70
2022-09-28T07:54:54.276Z,4.10
2022-09-28T07:55:54.268Z,5.00
2022-09-28T07:56:54.257Z,4.40
2022-09-28T07:57:54.239Z,4.60
2022-09-28T07:58:54.228Z,4.60
2022-09-28T07:59:54.214Z,4.70
2022-09-28T08:00:54.222Z,4.60
2022-09-28T08:01:54.227Z,4.00
2022-09-28T08:02:54.168Z,4.70
2022-09-28T08:03:54.167Z,4.30
2022-09-28T08:04:54.148Z,5.50
2022-09-28T08:05:54.136Z,6.70
2022-09-28T08:06:54.130Z,10.70
2022-09-28T08:07:54.111Z,7.90
2022-09-28T08:08:54.090Z,5.60
2022-09-28T08:09:54.080Z,5.70
2022-09-28T08:11:54.071Z,7.10
2022-09-28T08:12:54.040Z,7.00
2022-09-28T08:13:54.042Z,7.60
2022-09-28T08:14:54.011Z,8.70
2022-09-28T08:15:54.004Z,5.50
2022-09-28T08:16:53.993Z,6.70
2022-09-28T08:17:53.983Z,7.10
2022-09-28T08:18:53.962Z,6.20
2022-09-28T08:19:53.954Z,7.40
2022-09-28T08:20:53.934Z,12.80
2022-09-28T08:21:53.934Z,5.30
2022-09-28T08:22:53.914Z,5.30
2022-09-28T08:23:53.901Z,8.20
2022-09-28T08:24:53.883Z,7.90
2022-09-28T08:25:53.906Z,5.50
2022-09-28T08:26:53.864Z,5.40
2022-09-28T08:27:53.955Z,5.00
2022-09-28T08:28:53.835Z,6.70
2022-09-28T08:29:53.823Z,5.90
2022-09-28T08:30:53.829Z,6.40
2022-09-28T08:31:58.307Z,6.80
2022-09-28T08:32:54.777Z,7.00
2022-09-28T08:33:53.782Z,8.30
2022-09-28T08:34:53.756Z,6.20
2022-09-28T08:35:53.737Z,7.00
2022-09-28T08:36:53.734Z,9.70
2022-09-28T08:37:55.676Z,5.40
2022-09-28T08:38:53.698Z,5.90
2022-09-28T08:39:53.698Z,4.90
2022-09-28T08:40:53.722Z,5.20
2022-09-28T08:41:53.668Z,4.60
2022-09-28T08:42:53.649Z,4.70
2022-09-28T08:43:53.634Z,4.20
2022-09-28T08:44:53.619Z,5.00
2022-09-28T08:45:53.643Z,8.20
2022-09-28T08:46:53.610Z,5.20
2022-09-28T08:47:53.591Z,6.50
2022-09-28T08:49:13.302Z,7.10
2022-09-28T08:50:53.541Z,3.90
2022-09-28T08:51:53.541Z,3.80
2022-09-28T08:52:53.511Z,3.60
2022-09-28T08:53:53.508Z,3.50
2022-09-28T08:54:53.491Z,3.70
2022-09-28T08:55:53.482Z,3.10
2022-09-28T08:56:53.463Z,4.90
2022-09-28T08:57:53.451Z,4.90
2022-09-28T08:58:53.443Z,4.20
2022-09-28T08:59:53.425Z,3.10
2022-09-28T09:00:53.453Z,2.60
2022-09-28T09:01:55.811Z,2.80
2022-09-28T09:02:53.414Z,3.60
2022-09-28T09:03:53.378Z,3.50
2022-09-28T09:04:53.355Z,3.30
2022-09-28T09:05:53.354Z,7.00
2022-09-28T09:06:53.326Z,2.50
2022-09-28T09:07:53.392Z,6.10
2022-09-28T09:08:53.304Z,2.90
2022-09-28T09:09:53.295Z,3.80
2022-09-28T09:10:53.298Z,3.20
2022-09-28T09:11:53.266Z,5.40
2022-09-28T09:13:53.236Z,8.60
2022-09-28T09:14:53.229Z,4.70
2022-09-28T09:15:53.625Z,2.30
2022-09-28T09:16:53.229Z,6.10
2022-09-28T09:17:53.188Z,6.50
2022-09-28T09:18:53.175Z,3.00
2022-09-28T09:19:53.168Z,1.90
2022-09-28T09:20:53.149Z,7.30
2022-09-28T09:21:54.085Z,1.70
2022-09-28T09:22:53.125Z,10.40
2022-09-28T09:23:53.108Z,3.00
2022-09-28T09:24:53.109Z,9.10
2022-09-28T09:25:53.079Z,1.70
2022-09-28T09:26:53.079Z,4.20
2022-09-28T09:27:53.060Z,2.30
2022-09-28T09:28:53.046Z,4.40
2022-09-28T09:29:53.041Z,10.00
2022-09-28T09:30:53.045Z,2.20
2022-09-28T09:31:53.003Z,2.20
2022-09-28T09:32:52.991Z,11.80
2022-09-28T09:33:52.980Z,8.90
2022-09-28T09:34:52.983Z,1.80
2022-09-28T09:35:52.949Z,5.10
2022-09-28T09:36:53.733Z,2.10
2022-09-28T09:37:56.485Z,2.20
2022-09-28T09:38:53.913Z,3.50
2022-09-28T09:39:52.943Z,9.90
2022-09-28T09:40:53.054Z,20.30
2022-09-28T09:41:52.873Z,2.20
2022-09-28T09:42:52.871Z,8.40
2022-09-28T09:43:52.843Z,11.10
2022-09-28T09:44:52.849Z,2.00
2022-09-28T09:45:52.857Z,8.40
2022-09-28T09:46:52.804Z,3.50
2022-09-28T09:47:52.898Z,2.10
2022-09-28T09:48:52.783Z,24.00
2022-09-28T09:49:52.776Z,1.80
2022-09-28T09:50:52.756Z,7.00
2022-09-28T09:51:52.736Z,2.40
2022-09-28T09:52:52.728Z,2.50
2022-09-28T09:53:52.718Z,7.30
2022-09-28T09:54:52.714Z,13.90
2022-09-28T09:55:52.689Z,2.60
2022-09-28T09:56:52.677Z,2.10
2022-09-28T09:57:52.679Z,5.30
2022-09-28T09:58:52.647Z,1.50
2022-09-28T09:59:52.647Z,6.40
2022-09-28T10:00:52.703Z,1.70
2022-09-28T10:01:52.608Z,7.30
2022-09-28T10:02:52.695Z,9.00
2022-09-28T10:03:52.588Z,3.30
2022-09-28T10:04:52.586Z,9.20
2022-09-28T10:05:52.551Z,1.50
2022-09-28T10:06:52.550Z,5.10
2022-09-28T10:07:52.531Z,2.90
2022-09-28T10:08:52.520Z,11.00
2022-09-28T10:09:52.510Z,2.30
2022-09-28T10:10:52.495Z,10.50
2022-09-28T10:11:52.482Z,1.60
2022-09-28T10:12:52.539Z,1.30
2022-09-28T10:13:52.451Z,3.20
2022-09-28T10:14:52.453Z,3.60
2022-09-28T10:15:52.422Z,1.30
2022-09-28T10:16:52.461Z,2.40
2022-09-28T10:17:52.399Z,1.40
2022-09-28T10:18:52.394Z,8.30
2022-09-28T10:19:52.377Z,1.30
2022-09-28T10:20:52.361Z,3.20
2022-09-28T10:21:52.674Z,9.90
2022-09-28T10:22:52.335Z,5.30
2022-09-28T10:23:52.324Z,1.40
2022-09-28T10:24:52.305Z,2.20
2022-09-28T10:25:52.295Z,5.30
2022-09-28T10:26:52.286Z,6.60
2022-09-28T10:27:52.373Z,2.40
2022-09-28T10:28:52.265Z,36.80
2022-09-28T10:29:52.238Z,1.90
2022-09-28T10:30:52.285Z,1.30
2022-09-28T10:31:52.218Z,1.30
2022-09-28T10:32:52.344Z,1.30
2022-09-28T10:33:52.198Z,1.30
2022-09-28T10:34:52.213Z,1.50
2022-09-28T10:35:52.168Z,4.30
2022-09-28T10:36:52.157Z,5.60
2022-09-28T10:37:52.202Z,2.80
2022-09-28T10:38:52.128Z,2.90
2022-09-28T10:39:52.108Z,5.00
2022-09-28T10:40:52.151Z,1.80
2022-09-28T10:41:53.036Z,2.20
2022-09-28T10:42:52.080Z,2.40
2022-09-28T10:43:53.861Z,2.20
2022-09-28T10:44:53.057Z,4.70
2022-09-28T10:45:52.066Z,3.80
2022-09-28T10:46:52.040Z,18.00
2022-09-28T10:47:52.978Z,2.00
2022-09-28T10:48:52.000Z,2.20
2022-09-28T10:49:51.992Z,6.70
2022-09-28T10:50:51.982Z,3.10
2022-09-28T10:51:52.773Z,5.70
2022-09-28T10:52:52.053Z,1.50
2022-09-28T10:53:51.924Z,2.00
2022-09-28T10:54:51.914Z,2.50
2022-09-28T10:55:51.903Z,2.00
2022-09-28T10:56:51.899Z,2.00
2022-09-28T10:57:51.885Z,4.00
2022-09-28T10:58:51.863Z,3.50
2022-09-28T10:59:51.846Z,1.80
2022-09-28T11:00:51.845Z,1.70
2022-09-28T11:01:51.838Z,3.10
2022-09-28T11:02:52.786Z,1.60
2022-09-28T11:03:51.795Z,1.70
2022-09-28T11:04:52.745Z,1.80
2022-09-28T11:05:51.775Z,1.60
2022-09-28T11:06:51.804Z,6.20
2022-09-28T11:07:51.846Z,4.80
2022-09-28T11:08:51.732Z,4.40
2022-09-28T11:09:51.716Z,1.70
2022-09-28T11:10:51.716Z,1.70
2022-09-28T11:11:51.686Z,4.10
2022-09-28T11:12:51.689Z,5.40
2022-09-28T11:13:51.668Z,1.40
2022-09-28T11:14:51.670Z,5.10
2022-09-28T11:15:51.641Z,4.50
2022-09-28T11:16:51.649Z,1.40
2022-09-28T11:17:51.620Z,1.30
2022-09-28T11:18:51.599Z,2.10
2022-09-28T11:19:51.589Z,1.40
2022-09-28T11:20:51.579Z,1.30
2022-09-28T11:21:51.571Z,1.40
2022-09-28T11:22:53.524Z,1.30
2022-09-28T11:23:51.550Z,1.30
2022-09-28T11:24:51.531Z,1.50
2022-09-28T11:25:51.511Z,3.80
2022-09-28T11:26:52.449Z,1.40
2022-09-28T11:27:51.493Z,1.30
2022-09-28T11:28:51.469Z,5.70
2022-09-28T11:29:51.462Z,1.50
2022-09-28T11:30:51.482Z,1.20
2022-09-28T11:31:51.432Z,1.30
2022-09-28T11:32:51.440Z,4.60
2022-09-28T11:33:51.420Z,2.50
2022-09-28T11:35:00.169Z,3.30
2022-09-28T11:35:52.381Z,1.40
2022-09-28T11:36:51.374Z,1.90
2022-09-28T11:37:51.365Z,1.50
2022-09-28T11:38:51.346Z,1.40
2022-09-28T11:39:51.335Z,1.30
2022-09-28T11:40:51.359Z,1.50
2022-09-28T11:41:51.311Z,1.20
2022-09-28T11:42:51.304Z,1.30
2022-09-28T11:43:51.275Z,3.80
2022-09-28T11:44:51.266Z,4.10
2022-09-28T11:45:51.305Z,3.60
2022-09-28T11:46:51.243Z,8.50
2022-09-28T11:47:51.227Z,7.10
2022-09-28T11:48:51.218Z,14.90
2022-09-28T11:49:51.197Z,8.50
2022-09-28T11:50:51.204Z,3.60
2022-09-28T11:51:52.129Z,3.00
2022-09-28T11:52:51.169Z,3.50
2022-09-28T11:53:51.149Z,2.90
2022-09-28T11:54:51.139Z,3.40
2022-09-28T11:55:51.126Z,3.10
2022-09-28T11:56:51.119Z,13.10
2022-09-28T11:57:51.105Z,2.40
2022-09-28T11:58:52.045Z,1.90
2022-09-28T11:59:52.018Z,5.10
2022-09-28T12:00:52.009Z,14.50
2022-09-28T12:01:51.055Z,11.90
2022-09-28T12:02:51.114Z,1.40
2022-09-28T12:03:51.120Z,1.30
2022-09-28T12:04:51.012Z,5.90
2022-09-28T12:05:50.996Z,4.10
2022-09-28T12:06:50.989Z,5.90
2022-09-28T12:07:50.969Z,12.10
2022-09-28T12:08:50.986Z,4.20
2022-09-28T12:09:50.933Z,3.50
2022-09-28T12:10:50.924Z,1.90
2022-09-28T12:11:50.983Z,3.60
2022-09-28T12:12:50.906Z,7.80
2022-09-28T12:13:51.843Z,5.40
2022-09-28T12:14:50.928Z,1.80
2022-09-28T12:16:23.035Z,9.00
2022-09-28T12:17:05.823Z,1.60
2022-09-28T12:17:51.880Z,5.80
2022-09-28T12:18:50.906Z,4.10
2022-09-28T12:19:51.752Z,1.70
2022-09-28T12:20:50.796Z,8.40
2022-09-28T12:21:50.787Z,1.60
2022-09-28T12:22:50.786Z,1.60
2022-09-28T12:23:51.703Z,1.60
2022-09-28T12:24:50.737Z,4.20
2022-09-28T12:25:50.728Z,1.40
2022-09-28T12:26:50.727Z,1.30
2022-09-28T12:27:50.696Z,1.70
2022-09-28T12:28:50.690Z,5.80
2022-09-28T12:29:50.669Z,1.90
2022-09-28T12:30:50.703Z,4.20
2022-09-28T12:31:50.660Z,1.70
2022-09-28T12:32:50.638Z,5.80
2022-09-28T12:33:50.620Z,1.40
2022-09-28T12:34:50.609Z,2.60
2022-09-28T12:35:52.566Z,4.20
2022-09-28T12:36:50.590Z,1.70
2022-09-28T12:37:53.952Z,3.10
2022-09-28T12:39:08.432Z,2.40
2022-09-28T12:39:57.892Z,1.50
2022-09-28T12:40:51.572Z,1.60
2022-09-28T12:41:50.523Z,1.70
2022-09-28T12:42:50.506Z,1.50
2022-09-28T12:43:50.492Z,4.80
2022-09-28T12:44:50.483Z,2.20
2022-09-28T12:46:10.482Z,2.00
2022-09-28T12:46:52.469Z,1.80
2022-09-28T12:47:50.442Z,4.70
2022-09-28T12:49:24.123Z,2.30
2022-09-28T12:50:37.555Z,4.40
2022-09-28T12:50:57.158Z,2.30
2022-09-28T12:51:51.393Z,3.50
2022-09-28T12:52:50.375Z,1.80
2022-09-28T12:53:50.365Z,1.60
2022-09-28T12:54:50.354Z,1.60
2022-09-28T12:55:50.346Z,9.10
2022-09-28T12:56:50.315Z,12.50
2022-09-28T12:57:50.307Z,4.10
2022-09-28T12:58:50.306Z,8.30
2022-09-28T12:59:50.277Z,2.80
2022-09-28T13:00:50.277Z,2.90
2022-09-28T13:01:50.280Z,8.60
2022-09-28T13:02:50.323Z,6.60
2022-09-28T13:03:50.227Z,6.30
2022-09-28T13:04:50.218Z,12.20
2022-09-28T13:05:50.987Z,6.70
2022-09-28T13:06:50.195Z,5.80
2022-09-28T13:07:50.177Z,6.10
2022-09-28T13:08:50.166Z,2.90
2022-09-28T13:09:51.098Z,4.10
2022-09-28T13:10:50.149Z,6.30
2022-09-28T13:11:50.141Z,4.70
2022-09-28T13:12:50.119Z,2.30
2022-09-28T13:13:51.040Z,3.70
2022-09-28T13:14:50.090Z,3.10
2022-09-28T13:15:50.112Z,2.60
2022-09-28T13:16:50.071Z,2.90
2022-09-28T13:17:50.040Z,2.80
2022-09-28T13:18:50.032Z,1.90